sensor_id;sensor_type;location;lat;lon;timestamp;pressure;altitude;pressure_sealevel;temperature
19040;BMP180;9652;49.014;12.052;2022-11-15T00:00:45;97835.00;;;6.80
19040;BMP180;9652;49.014;12.052;2022-11-15T00:03:30;97840.00;;;6.70
19040;BMP180;9652;49.014;12.052;2022-11-15T00:06:16;97830.00;;;6.70
19040;BMP180;9652;49.014;12.052;2022-11-15T00:09:03;97805.00;;;6.70
19040;BMP180;9652;49.014;12.052;2022-11-15T00:11:48;97815.00;;;6.70
19040;BMP180;9652;49.014;12.052;2022-11-15T00:14:35;97818.00;;;6.70
19040;BMP180;9652;49.014;12.052;2022-11-15T00:17:21;97830.00;;;6.70
19040;BMP180;9652;49.014;12.052;2022-11-15T00:20:08;97825.00;;;6.70
19040;BMP180;9652;49.014;12.052;2022-11-15T00:22:55;97820.00;;;6.60
19040;BMP180;9652;49.014;12.052;2022-11-15T00:25:41;97824.00;;;6.60
19040;BMP180;9652;49.014;12.052;2022-11-15T00:28:27;97829.00;;;6.60
19040;BMP180;9652;49.014;12.052;2022-11-15T00:31:14;97820.00;;;6.60
19040;BMP180;9652;49.014;12.052;2022-11-15T00:34:00;97823.00;;;6.60
19040;BMP180;9652;49.014;12.052;2022-11-15T00:36:46;97818.00;;;6.60
19040;BMP180;9652;49.014;12.052;2022-11-15T00:39:32;97780.00;;;6.50
19040;BMP180;9652;49.014;12.052;2022-11-15T00:42:17;97804.00;;;6.60
19040;BMP180;9652;49.014;12.052;2022-11-15T00:45:04;97792.00;;;6.50
19040;BMP180;9652;49.014;12.052;2022-11-15T00:47:51;97806.00;;;6.50
19040;BMP180;9652;49.014;12.052;2022-11-15T00:50:37;97803.00;;;6.50
19040;BMP180;9652;49.014;12.052;2022-11-15T00:53:23;97798.00;;;6.50
19040;BMP180;9652;49.014;12.052;2022-11-15T00:56:09;97799.00;;;6.50
19040;BMP180;9652;49.014;12.052;2022-11-15T00:58:55;97794.00;;;6.40
19040;BMP180;9652;49.014;12.052;2022-11-15T01:01:40;97798.00;;;6.40
19040;BMP180;9652;49.014;12.052;2022-11-15T01:04:28;97790.00;;;6.40
19040;BMP180;9652;49.014;12.052;2022-11-15T01:07:13;97794.00;;;6.40
19040;BMP180;9652;49.014;12.052;2022-11-15T01:09:59;97786.00;;;6.40
19040;BMP180;9652;49.014;12.052;2022-11-15T01:12:45;97786.00;;;6.40
19040;BMP180;9652;49.014;12.052;2022-11-15T01:15:31;97785.00;;;6.40
19040;BMP180;9652;49.014;12.052;2022-11-15T01:18:17;97784.00;;;6.30
19040;BMP180;9652;49.014;12.052;2022-11-15T01:21:08;97770.00;;;6.30
19040;BMP180;9652;49.014;12.052;2022-11-15T01:23:55;97785.00;;;6.30
19040;BMP180;9652;49.014;12.052;2022-11-15T01:26:41;97781.00;;;6.30
19040;BMP180;9652;49.014;12.052;2022-11-15T01:29:26;97754.00;;;6.30
19040;BMP180;9652;49.014;12.052;2022-11-15T01:32:12;97775.00;;;6.30
19040;BMP180;9652;49.014;12.052;2022-11-15T01:34:58;97768.00;;;6.30
19040;BMP180;9652;49.014;12.052;2022-11-15T01:37:45;97778.00;;;6.20
19040;BMP180;9652;49.014;12.052;2022-11-15T01:40:31;97760.00;;;6.20
19040;BMP180;9652;49.014;12.052;2022-11-15T01:43:23;97752.00;;;6.20
19040;BMP180;9652;49.014;12.052;2022-11-15T01:46:29;97752.00;;;6.20
19040;BMP180;9652;49.014;12.052;2022-11-15T01:49:21;97749.00;;;6.20
19040;BMP180;9652;49.014;12.052;2022-11-15T01:52:13;97748.00;;;6.20
19040;BMP180;9652;49.014;12.052;2022-11-15T01:55:08;97737.00;;;6.10
19040;BMP180;9652;49.014;12.052;2022-11-15T01:57:59;97732.00;;;6.10
19040;BMP180;9652;49.014;12.052;2022-11-15T02:00:47;97737.00;;;6.10
19040;BMP180;9652;49.014;12.052;2022-11-15T02:03:41;97724.00;;;6.10
19040;BMP180;9652;49.014;12.052;2022-11-15T02:06:29;97736.00;;;6.10
19040;BMP180;9652;49.014;12.052;2022-11-15T02:09:16;97719.00;;;6.10
19040;BMP180;9652;49.014;12.052;2022-11-15T02:12:05;97725.00;;;6.10
19040;BMP180;9652;49.014;12.052;2022-11-15T02:14:54;97723.00;;;6.10
19040;BMP180;9652;49.014;12.052;2022-11-15T02:18:07;97714.00;;;6.10
19040;BMP180;9652;49.014;12.052;2022-11-15T02:21:10;97721.00;;;6.00
19040;BMP180;9652;49.014;12.052;2022-11-15T02:28:42;97720.00;;;6.00
19040;BMP180;9652;49.014;12.052;2022-11-15T02:31:40;97674.00;;;6.00
19040;BMP180;9652;49.014;12.052;2022-11-15T02:34:37;97696.00;;;5.90
19040;BMP180;9652;49.014;12.052;2022-11-15T02:37:34;97692.00;;;5.90
19040;BMP180;9652;49.014;12.052;2022-11-15T02:40:34;97700.00;;;5.90
19040;BMP180;9652;49.014;12.052;2022-11-15T02:43:28;97701.00;;;5.90
19040;BMP180;9652;49.014;12.052;2022-11-15T02:46:38;97692.00;;;5.90
19040;BMP180;9652;49.014;12.052;2022-11-15T02:49:58;97685.00;;;5.70
19040;BMP180;9652;49.014;12.052;2022-11-15T02:52:46;97692.00;;;5.90
19040;BMP180;9652;49.014;12.052;2022-11-15T02:55:35;97688.00;;;5.90
19040;BMP180;9652;49.014;12.052;2022-11-15T02:58:50;97673.00;;;5.90
19040;BMP180;9652;49.014;12.052;2022-11-15T03:01:56;97678.00;;;5.90
19040;BMP180;9652;49.014;12.052;2022-11-15T03:04:52;97673.00;;;5.80
19040;BMP180;9652;49.014;12.052;2022-11-15T03:07:47;97678.00;;;5.80
19040;BMP180;9652;49.014;12.052;2022-11-15T03:10:46;97685.00;;;5.80
19040;BMP180;9652;49.014;12.052;2022-11-15T03:13:46;97691.00;;;5.80
19040;BMP180;9652;49.014;12.052;2022-11-15T03:16:41;97690.00;;;5.50
19040;BMP180;9652;49.014;12.052;2022-11-15T03:19:35;97692.00;;;5.80
19040;BMP180;9652;49.014;12.052;2022-11-15T03:22:27;97687.00;;;5.80
19040;BMP180;9652;49.014;12.052;2022-11-15T03:25:19;97686.00;;;5.80
19040;BMP180;9652;49.014;12.052;2022-11-15T03:28:09;97690.00;;;5.80
19040;BMP180;9652;49.014;12.052;2022-11-15T03:30:58;97687.00;;;5.80
19040;BMP180;9652;49.014;12.052;2022-11-15T03:33:48;97688.00;;;5.80
19040;BMP180;9652;49.014;12.052;2022-11-15T03:36:35;97687.00;;;5.70
19040;BMP180;9652;49.014;12.052;2022-11-15T03:39:22;97687.00;;;5.70
19040;BMP180;9652;49.014;12.052;2022-11-15T03:42:21;97683.00;;;5.70
19040;BMP180;9652;49.014;12.052;2022-11-15T03:45:14;97684.00;;;5.70
19040;BMP180;9652;49.014;12.052;2022-11-15T03:48:09;97657.00;;;5.70
19040;BMP180;9652;49.014;12.052;2022-11-15T03:50:58;97674.00;;;5.70
19040;BMP180;9652;49.014;12.052;2022-11-15T03:53:43;97661.00;;;5.70
19040;BMP180;9652;49.014;12.052;2022-11-15T03:56:29;97652.00;;;5.70
19040;BMP180;9652;49.014;12.052;2022-11-15T03:59:15;97674.00;;;5.60
19040;BMP180;9652;49.014;12.052;2022-11-15T04:02:01;97666.00;;;5.60
19040;BMP180;9652;49.014;12.052;2022-11-15T04:04:46;97671.00;;;5.60
19040;BMP180;9652;49.014;12.052;2022-11-15T04:07:33;97667.00;;;5.60
19040;BMP180;9652;49.014;12.052;2022-11-15T04:10:19;97654.00;;;5.60
19040;BMP180;9652;49.014;12.052;2022-11-15T04:13:05;97671.00;;;5.60
19040;BMP180;9652;49.014;12.052;2022-11-15T04:15:51;97657.00;;;5.60
19040;BMP180;9652;49.014;12.052;2022-11-15T04:18:37;97647.00;;;5.60
19040;BMP180;9652;49.014;12.052;2022-11-15T04:21:23;97649.00;;;5.60
19040;BMP180;9652;49.014;12.052;2022-11-15T04:24:27;97633.00;;;5.50
19040;BMP180;9652;49.014;12.052;2022-11-15T04:27:13;97641.00;;;5.60
19040;BMP180;9652;49.014;12.052;2022-11-15T04:29:59;97637.00;;;5.50
19040;BMP180;9652;49.014;12.052;2022-11-15T04:32:45;97648.00;;;5.50
19040;BMP180;9652;49.014;12.052;2022-11-15T04:35:31;97630.00;;;5.50
19040;BMP180;9652;49.014;12.052;2022-11-15T04:38:16;97643.00;;;5.50
19040;BMP180;9652;49.014;12.052;2022-11-15T04:41:03;97648.00;;;5.50
19040;BMP180;9652;49.014;12.052;2022-11-15T04:43:49;97647.00;;;5.40
19040;BMP180;9652;49.014;12.052;2022-11-15T04:46:35;97650.00;;;5.40
19040;BMP180;9652;49.014;12.052;2022-11-15T04:49:21;97645.00;;;5.40
19040;BMP180;9652;49.014;12.052;2022-11-15T04:52:06;97639.00;;;5.40
19040;BMP180;9652;49.014;12.052;2022-11-15T04:54:52;97635.00;;;5.40
19040;BMP180;9652;49.014;12.052;2022-11-15T04:57:39;97641.00;;;5.40
19040;BMP180;9652;49.014;12.052;2022-11-15T05:00:26;97627.00;;;5.40
19040;BMP180;9652;49.014;12.052;2022-11-15T05:03:12;97638.00;;;5.40
19040;BMP180;9652;49.014;12.052;2022-11-15T05:06:16;97630.00;;;5.40
19040;BMP180;9652;49.014;12.052;2022-11-15T05:09:02;97634.00;;;5.40
19040;BMP180;9652;49.014;12.052;2022-11-15T05:11:48;97596.00;;;5.40
19040;BMP180;9652;49.014;12.052;2022-11-15T05:14:34;97620.00;;;5.40
19040;BMP180;9652;49.014;12.052;2022-11-15T05:17:20;97628.00;;;5.40
19040;BMP180;9652;49.014;12.052;2022-11-15T05:20:07;97616.00;;;5.40
19040;BMP180;9652;49.014;12.052;2022-11-15T05:22:54;97608.00;;;5.40
19040;BMP180;9652;49.014;12.052;2022-11-15T05:25:39;97586.00;;;5.40
19040;BMP180;9652;49.014;12.052;2022-11-15T05:28:25;97606.00;;;5.40
19040;BMP180;9652;49.014;12.052;2022-11-15T05:31:15;97602.00;;;5.40
19040;BMP180;9652;49.014;12.052;2022-11-15T05:34:04;97601.00;;;5.40
19040;BMP180;9652;49.014;12.052;2022-11-15T05:36:50;97607.00;;;5.40
19040;BMP180;9652;49.014;12.052;2022-11-15T05:39:36;97599.00;;;5.30
19040;BMP180;9652;49.014;12.052;2022-11-15T05:42:22;97600.00;;;5.30
19040;BMP180;9652;49.014;12.052;2022-11-15T05:45:09;97593.00;;;5.30
19040;BMP180;9652;49.014;12.052;2022-11-15T05:47:58;97608.00;;;5.30
19040;BMP180;9652;49.014;12.052;2022-11-15T05:50:47;97614.00;;;5.30
19040;BMP180;9652;49.014;12.052;2022-11-15T05:53:35;97618.00;;;5.30
19040;BMP180;9652;49.014;12.052;2022-11-15T05:56:21;97588.00;;;5.30
19040;BMP180;9652;49.014;12.052;2022-11-15T05:59:08;97615.00;;;5.30
19040;BMP180;9652;49.014;12.052;2022-11-15T06:01:54;97601.00;;;5.30
19040;BMP180;9652;49.014;12.052;2022-11-15T06:04:41;97592.00;;;5.30
19040;BMP180;9652;49.014;12.052;2022-11-15T06:07:28;97587.00;;;5.20
19040;BMP180;9652;49.014;12.052;2022-11-15T06:10:14;97603.00;;;5.20
19040;BMP180;9652;49.014;12.052;2022-11-15T06:13:02;97598.00;;;5.20
19040;BMP180;9652;49.014;12.052;2022-11-15T06:15:48;97594.00;;;5.20
19040;BMP180;9652;49.014;12.052;2022-11-15T06:18:35;97608.00;;;5.20
19040;BMP180;9652;49.014;12.052;2022-11-15T06:21:23;97606.00;;;5.10
19040;BMP180;9652;49.014;12.052;2022-11-15T06:24:08;97595.00;;;5.10
19040;BMP180;9652;49.014;12.052;2022-11-15T06:26:54;97600.00;;;5.10
19040;BMP180;9652;49.014;12.052;2022-11-15T06:29:41;97581.00;;;5.10
19040;BMP180;9652;49.014;12.052;2022-11-15T06:32:28;97582.00;;;5.10
19040;BMP180;9652;49.014;12.052;2022-11-15T06:35:14;97584.00;;;5.10
19040;BMP180;9652;49.014;12.052;2022-11-15T06:38:04;97579.00;;;5.10
19040;BMP180;9652;49.014;12.052;2022-11-15T06:40:50;97578.00;;;5.10
19040;BMP180;9652;49.014;12.052;2022-11-15T06:43:36;97575.00;;;5.20
19040;BMP180;9652;49.014;12.052;2022-11-15T06:46:23;97579.00;;;5.20
19040;BMP180;9652;49.014;12.052;2022-11-15T06:49:08;97579.00;;;5.20
19040;BMP180;9652;49.014;12.052;2022-11-15T06:51:54;97587.00;;;5.20
19040;BMP180;9652;49.014;12.052;2022-11-15T06:54:41;97600.00;;;5.20
19040;BMP180;9652;49.014;12.052;2022-11-15T06:57:27;97607.00;;;5.20
19040;BMP180;9652;49.014;12.052;2022-11-15T07:00:15;97621.00;;;5.20
19040;BMP180;9652;49.014;12.052;2022-11-15T07:03:01;97608.00;;;5.20
19040;BMP180;9652;49.014;12.052;2022-11-15T07:05:52;97604.00;;;5.30
19040;BMP180;9652;49.014;12.052;2022-11-15T07:08:38;97612.00;;;5.30
19040;BMP180;9652;49.014;12.052;2022-11-15T07:11:27;97603.00;;;5.30
19040;BMP180;9652;49.014;12.052;2022-11-15T07:14:13;97612.00;;;5.30
19040;BMP180;9652;49.014;12.052;2022-11-15T07:16:59;97609.00;;;5.40
19040;BMP180;9652;49.014;12.052;2022-11-15T07:19:44;97599.00;;;5.40
19040;BMP180;9652;49.014;12.052;2022-11-15T07:22:33;97606.00;;;5.50
19040;BMP180;9652;49.014;12.052;2022-11-15T07:25:19;97601.00;;;5.50
19040;BMP180;9652;49.014;12.052;2022-11-15T07:28:06;97590.00;;;5.50
19040;BMP180;9652;49.014;12.052;2022-11-15T07:30:52;97588.00;;;5.60
19040;BMP180;9652;49.014;12.052;2022-11-15T07:33:40;97592.00;;;5.60
19040;BMP180;9652;49.014;12.052;2022-11-15T07:36:26;97596.00;;;5.70
19040;BMP180;9652;49.014;12.052;2022-11-15T07:39:12;97584.00;;;5.70
19040;BMP180;9652;49.014;12.052;2022-11-15T07:41:59;97593.00;;;5.80
19040;BMP180;9652;49.014;12.052;2022-11-15T07:45:05;97592.00;;;5.80
19040;BMP180;9652;49.014;12.052;2022-11-15T07:47:51;97600.00;;;5.90
19040;BMP180;9652;49.014;12.052;2022-11-15T07:50:40;97589.00;;;6.00
19040;BMP180;9652;49.014;12.052;2022-11-15T07:53:26;97593.00;;;6.00
19040;BMP180;9652;49.014;12.052;2022-11-15T07:56:12;97581.00;;;6.10
19040;BMP180;9652;49.014;12.052;2022-11-15T07:58:58;97573.00;;;6.20
19040;BMP180;9652;49.014;12.052;2022-11-15T08:01:47;97567.00;;;6.30
19040;BMP180;9652;49.014;12.052;2022-11-15T08:04:32;97574.00;;;6.30
19040;BMP180;9652;49.014;12.052;2022-11-15T08:07:18;97570.00;;;6.40
19040;BMP180;9652;49.014;12.052;2022-11-15T08:10:05;97564.00;;;6.50
19040;BMP180;9652;49.014;12.052;2022-11-15T08:12:58;97529.00;;;6.50
19040;BMP180;9652;49.014;12.052;2022-11-15T08:15:44;97575.00;;;6.60
19040;BMP180;9652;49.014;12.052;2022-11-15T08:18:31;97580.00;;;6.70
19040;BMP180;9652;49.014;12.052;2022-11-15T08:21:20;97571.00;;;6.80
19040;BMP180;9652;49.014;12.052;2022-11-15T08:24:09;97562.00;;;6.80
19040;BMP180;9652;49.014;12.052;2022-11-15T08:26:55;97571.00;;;6.90
19040;BMP180;9652;49.014;12.052;2022-11-15T08:29:42;97570.00;;;7.00
19040;BMP180;9652;49.014;12.052;2022-11-15T08:32:28;97564.00;;;7.10
19040;BMP180;9652;49.014;12.052;2022-11-15T08:35:16;97544.00;;;7.20
19040;BMP180;9652;49.014;12.052;2022-11-15T08:38:02;97567.00;;;7.30
19040;BMP180;9652;49.014;12.052;2022-11-15T08:40:47;97563.00;;;7.40
19040;BMP180;9652;49.014;12.052;2022-11-15T08:43:33;97557.00;;;7.50
19040;BMP180;9652;49.014;12.052;2022-11-15T08:46:19;97563.00;;;7.50
19040;BMP180;9652;49.014;12.052;2022-11-15T08:49:04;97545.00;;;7.70
19040;BMP180;9652;49.014;12.052;2022-11-15T08:51:52;97551.00;;;7.70
19040;BMP180;9652;49.014;12.052;2022-11-15T08:54:37;97554.00;;;7.80
19040;BMP180;9652;49.014;12.052;2022-11-15T08:57:23;97547.00;;;7.90
19040;BMP180;9652;49.014;12.052;2022-11-15T09:00:11;97546.00;;;8.00
19040;BMP180;9652;49.014;12.052;2022-11-15T09:02:57;97546.00;;;8.10
19040;BMP180;9652;49.014;12.052;2022-11-15T09:05:43;97533.00;;;8.20
19040;BMP180;9652;49.014;12.052;2022-11-15T09:08:30;97538.00;;;8.20
19040;BMP180;9652;49.014;12.052;2022-11-15T09:11:16;97533.00;;;8.30
19040;BMP180;9652;49.014;12.052;2022-11-15T09:14:04;97530.00;;;8.40
19040;BMP180;9652;49.014;12.052;2022-11-15T09:16:50;97525.00;;;8.50
19040;BMP180;9652;49.014;12.052;2022-11-15T09:19:36;97512.00;;;8.60
19040;BMP180;9652;49.014;12.052;2022-11-15T09:22:22;97512.00;;;8.70
19040;BMP180;9652;49.014;12.052;2022-11-15T09:25:09;97503.00;;;8.80
19040;BMP180;9652;49.014;12.052;2022-11-15T09:27:56;97502.00;;;8.90
19040;BMP180;9652;49.014;12.052;2022-11-15T09:30:42;97502.00;;;9.00
19040;BMP180;9652;49.014;12.052;2022-11-15T09:33:28;97510.00;;;9.10
19040;BMP180;9652;49.014;12.052;2022-11-15T09:36:14;97498.00;;;9.20
19040;BMP180;9652;49.014;12.052;2022-11-15T09:39:01;97498.00;;;9.30
19040;BMP180;9652;49.014;12.052;2022-11-15T09:42:14;97492.00;;;9.40
19040;BMP180;9652;49.014;12.052;2022-11-15T09:45:18;97500.00;;;9.50
19040;BMP180;9652;49.014;12.052;2022-11-15T09:48:42;97510.00;;;9.60
19040;BMP180;9652;49.014;12.052;2022-11-15T09:51:39;97495.00;;;9.70
19040;BMP180;9652;49.014;12.052;2022-11-15T09:54:25;97497.00;;;9.80
19040;BMP180;9652;49.014;12.052;2022-11-15T09:56:56;97492.00;;;9.90
19040;BMP180;9652;49.014;12.052;2022-11-15T09:59:46;97485.00;;;10.00
19040;BMP180;9652;49.014;12.052;2022-11-15T10:02:33;97480.00;;;10.00
19040;BMP180;9652;49.014;12.052;2022-11-15T10:05:08;97492.00;;;10.10
19040;BMP180;9652;49.014;12.052;2022-11-15T10:07:46;97492.00;;;10.20
19040;BMP180;9652;49.014;12.052;2022-11-15T10:10:27;97483.00;;;10.30
19040;BMP180;9652;49.014;12.052;2022-11-15T10:12:56;97485.00;;;10.40
19040;BMP180;9652;49.014;12.052;2022-11-15T10:15:26;97467.00;;;10.50
19040;BMP180;9652;49.014;12.052;2022-11-15T10:18:08;97452.00;;;10.50
19040;BMP180;9652;49.014;12.052;2022-11-15T10:20:47;97458.00;;;10.60
19040;BMP180;9652;49.014;12.052;2022-11-15T10:23:18;97437.00;;;10.70
19040;BMP180;9652;49.014;12.052;2022-11-15T10:25:46;97419.00;;;10.80
19040;BMP180;9652;49.014;12.052;2022-11-15T10:28:21;97432.00;;;10.90
19040;BMP180;9652;49.014;12.052;2022-11-15T10:30:53;97428.00;;;10.90
19040;BMP180;9652;49.014;12.052;2022-11-15T10:33:33;97421.00;;;11.00
19040;BMP180;9652;49.014;12.052;2022-11-15T10:36:21;97408.00;;;11.10
19040;BMP180;9652;49.014;12.052;2022-11-15T10:38:56;97399.00;;;11.20
19040;BMP180;9652;49.014;12.052;2022-11-15T10:41:32;97400.00;;;11.20
19040;BMP180;9652;49.014;12.052;2022-11-15T10:44:11;97390.00;;;11.20
19040;BMP180;9652;49.014;12.052;2022-11-15T10:46:42;97367.00;;;11.40
19040;BMP180;9652;49.014;12.052;2022-11-15T10:49:14;97376.00;;;11.50
19040;BMP180;9652;49.014;12.052;2022-11-15T10:51:47;97379.00;;;11.60
19040;BMP180;9652;49.014;12.052;2022-11-15T10:54:23;97380.00;;;11.70
19040;BMP180;9652;49.014;12.052;2022-11-15T10:56:56;97376.00;;;11.80
19040;BMP180;9652;49.014;12.052;2022-11-15T10:59:28;97357.00;;;11.80
19040;BMP180;9652;49.014;12.052;2022-11-15T11:01:57;97378.00;;;11.90
19040;BMP180;9652;49.014;12.052;2022-11-15T11:04:25;97358.00;;;12.00
19040;BMP180;9652;49.014;12.052;2022-11-15T11:06:55;97360.00;;;12.00
19040;BMP180;9652;49.014;12.052;2022-11-15T11:09:30;97351.00;;;12.10
19040;BMP180;9652;49.014;12.052;2022-11-15T11:11:59;97351.00;;;12.20
19040;BMP180;9652;49.014;12.052;2022-11-15T11:14:29;97344.00;;;12.20
19040;BMP180;9652;49.014;12.052;2022-11-15T11:17:06;97344.00;;;12.30
19040;BMP180;9652;49.014;12.052;2022-11-15T11:19:55;97336.00;;;12.40
19040;BMP180;9652;49.014;12.052;2022-11-15T11:22:32;97320.00;;;12.50
19040;BMP180;9652;49.014;12.052;2022-11-15T11:25:18;97334.00;;;12.50
19040;BMP180;9652;49.014;12.052;2022-11-15T11:28:05;97329.00;;;12.60
19040;BMP180;9652;49.014;12.052;2022-11-15T11:30:48;97324.00;;;12.60
19040;BMP180;9652;49.014;12.052;2022-11-15T11:33:22;97307.00;;;12.70
19040;BMP180;9652;49.014;12.052;2022-11-15T11:36:09;97315.00;;;12.80
19040;BMP180;9652;49.014;12.052;2022-11-15T11:38:58;97309.00;;;12.80
19040;BMP180;9652;49.014;12.052;2022-11-15T11:41:48;97299.00;;;12.90
19040;BMP180;9652;49.014;12.052;2022-11-15T11:44:34;97311.00;;;12.90
19040;BMP180;9652;49.014;12.052;2022-11-15T11:47:11;97302.00;;;13.00
19040;BMP180;9652;49.014;12.052;2022-11-15T11:49:46;97289.00;;;13.00
19040;BMP180;9652;49.014;12.052;2022-11-15T11:52:21;97295.00;;;13.10
19040;BMP180;9652;49.014;12.052;2022-11-15T11:55:01;97287.00;;;13.10
19040;BMP180;9652;49.014;12.052;2022-11-15T11:57:41;97297.00;;;13.20
19040;BMP180;9652;49.014;12.052;2022-11-15T12:00:18;97287.00;;;13.20
19040;BMP180;9652;49.014;12.052;2022-11-15T12:02:56;97278.00;;;13.30
19040;BMP180;9652;49.014;12.052;2022-11-15T12:05:35;97262.00;;;13.30
19040;BMP180;9652;49.014;12.052;2022-11-15T12:08:39;97264.00;;;13.30
19040;BMP180;9652;49.014;12.052;2022-11-15T12:11:14;97271.00;;;13.30
19040;BMP180;9652;49.014;12.052;2022-11-15T12:13:45;97258.00;;;13.40
19040;BMP180;9652;49.014;12.052;2022-11-15T12:16:21;97255.00;;;13.40
19040;BMP180;9652;49.014;12.052;2022-11-15T12:18:52;97249.00;;;13.40
19040;BMP180;9652;49.014;12.052;2022-11-15T12:21:29;97247.00;;;13.50
19040;BMP180;9652;49.014;12.052;2022-11-15T12:24:04;97242.00;;;13.50
19040;BMP180;9652;49.014;12.052;2022-11-15T12:26:37;97232.00;;;13.50
19040;BMP180;9652;49.014;12.052;2022-11-15T12:29:16;97230.00;;;13.50
19040;BMP180;9652;49.014;12.052;2022-11-15T12:31:48;97232.00;;;13.60
19040;BMP180;9652;49.014;12.052;2022-11-15T12:34:43;97226.00;;;13.60
19040;BMP180;9652;49.014;12.052;2022-11-15T12:37:49;97227.00;;;13.60
19040;BMP180;9652;49.014;12.052;2022-11-15T12:40:32;97222.00;;;13.60
19040;BMP180;9652;49.014;12.052;2022-11-15T12:46:18;97210.00;;;13.60
19040;BMP180;9652;49.014;12.052;2022-11-15T12:48:54;97207.00;;;13.60
19040;BMP180;9652;49.014;12.052;2022-11-15T12:55:01;97211.00;;;13.60
19040;BMP180;9652;49.014;12.052;2022-11-15T12:57:42;97208.00;;;13.60
19040;BMP180;9652;49.014;12.052;2022-11-15T13:00:44;97210.00;;;13.60
19040;BMP180;9652;49.014;12.052;2022-11-15T13:03:26;97193.00;;;13.60
19040;BMP180;9652;49.014;12.052;2022-11-15T13:06:07;97200.00;;;13.60
19040;BMP180;9652;49.014;12.052;2022-11-15T13:08:53;97206.00;;;13.60
19040;BMP180;9652;49.014;12.052;2022-11-15T13:11:51;97190.00;;;13.60
19040;BMP180;9652;49.014;12.052;2022-11-15T13:14:46;97206.00;;;13.60
19040;BMP180;9652;49.014;12.052;2022-11-15T13:17:34;97195.00;;;13.60
19040;BMP180;9652;49.014;12.052;2022-11-15T13:20:25;97195.00;;;13.60
19040;BMP180;9652;49.014;12.052;2022-11-15T13:23:02;97194.00;;;13.60
19040;BMP180;9652;49.014;12.052;2022-11-15T13:26:17;97183.00;;;13.60
19040;BMP180;9652;49.014;12.052;2022-11-15T13:28:50;97181.00;;;13.60
19040;BMP180;9652;49.014;12.052;2022-11-15T13:31:36;97183.00;;;13.60
19040;BMP180;9652;49.014;12.052;2022-11-15T13:34:24;97186.00;;;13.60
19040;BMP180;9652;49.014;12.052;2022-11-15T13:36:52;97192.00;;;13.60
19040;BMP180;9652;49.014;12.052;2022-11-15T13:39:31;97180.00;;;13.60
19040;BMP180;9652;49.014;12.052;2022-11-15T13:42:00;97150.00;;;13.70
19040;BMP180;9652;49.014;12.052;2022-11-15T13:44:30;97186.00;;;13.70
19040;BMP180;9652;49.014;12.052;2022-11-15T13:47:03;97184.00;;;13.70
19040;BMP180;9652;49.014;12.052;2022-11-15T13:49:33;97185.00;;;13.70
19040;BMP180;9652;49.014;12.052;2022-11-15T13:52:06;97177.00;;;13.70
19040;BMP180;9652;49.014;12.052;2022-11-15T13:54:39;97177.00;;;13.70
19040;BMP180;9652;49.014;12.052;2022-11-15T13:57:13;97176.00;;;13.70
19040;BMP180;9652;49.014;12.052;2022-11-15T13:59:49;97171.00;;;13.70
19040;BMP180;9652;49.014;12.052;2022-11-15T14:02:21;97164.00;;;13.70
19040;BMP180;9652;49.014;12.052;2022-11-15T14:04:55;97167.00;;;13.70
19040;BMP180;9652;49.014;12.052;2022-11-15T14:07:26;97168.00;;;13.70
19040;BMP180;9652;49.014;12.052;2022-11-15T14:09:53;97156.00;;;13.70
19040;BMP180;9652;49.014;12.052;2022-11-15T14:12:29;97142.00;;;13.70
19040;BMP180;9652;49.014;12.052;2022-11-15T14:15:24;97157.00;;;13.70
19040;BMP180;9652;49.014;12.052;2022-11-15T14:17:53;97142.00;;;13.70
19040;BMP180;9652;49.014;12.052;2022-11-15T14:20:32;97143.00;;;13.70
19040;BMP180;9652;49.014;12.052;2022-11-15T14:23:02;97136.00;;;13.70
19040;BMP180;9652;49.014;12.052;2022-11-15T14:25:31;97146.00;;;13.70
19040;BMP180;9652;49.014;12.052;2022-11-15T14:28:28;97122.00;;;13.70
19040;BMP180;9652;49.014;12.052;2022-11-15T14:30:59;97134.00;;;13.70
19040;BMP180;9652;49.014;12.052;2022-11-15T14:33:30;97134.00;;;13.70
19040;BMP180;9652;49.014;12.052;2022-11-15T14:36:04;97121.00;;;13.70
19040;BMP180;9652;49.014;12.052;2022-11-15T14:38:32;97120.00;;;13.60
19040;BMP180;9652;49.014;12.052;2022-11-15T14:41:00;97117.00;;;13.60
19040;BMP180;9652;49.014;12.052;2022-11-15T14:43:27;97111.00;;;13.60
19040;BMP180;9652;49.014;12.052;2022-11-15T14:45:55;97117.00;;;13.60
19040;BMP180;9652;49.014;12.052;2022-11-15T14:48:23;97109.00;;;13.60
19040;BMP180;9652;49.014;12.052;2022-11-15T14:50:50;97113.00;;;13.60
19040;BMP180;9652;49.014;12.052;2022-11-15T14:53:18;97113.00;;;13.60
19040;BMP180;9652;49.014;12.052;2022-11-15T14:55:45;97096.00;;;13.60
19040;BMP180;9652;49.014;12.052;2022-11-15T14:58:12;97099.00;;;13.50
19040;BMP180;9652;49.014;12.052;2022-11-15T15:00:41;97097.00;;;13.50
19040;BMP180;9652;49.014;12.052;2022-11-15T15:03:09;97091.00;;;13.50
19040;BMP180;9652;49.014;12.052;2022-11-15T15:05:40;97082.00;;;13.40
19040;BMP180;9652;49.014;12.052;2022-11-15T15:08:09;97089.00;;;13.40
19040;BMP180;9652;49.014;12.052;2022-11-15T15:10:39;97094.00;;;13.30
19040;BMP180;9652;49.014;12.052;2022-11-15T15:13:16;97085.00;;;13.30
19040;BMP180;9652;49.014;12.052;2022-11-15T15:15:44;97081.00;;;13.20
19040;BMP180;9652;49.014;12.052;2022-11-15T15:18:11;97070.00;;;13.20
19040;BMP180;9652;49.014;12.052;2022-11-15T15:20:41;97072.00;;;13.10
19040;BMP180;9652;49.014;12.052;2022-11-15T15:23:16;97085.00;;;13.00
19040;BMP180;9652;49.014;12.052;2022-11-15T15:25:44;97081.00;;;13.00
19040;BMP180;9652;49.014;12.052;2022-11-15T15:28:12;97074.00;;;12.90
19040;BMP180;9652;49.014;12.052;2022-11-15T15:30:40;97085.00;;;12.80
19040;BMP180;9652;49.014;12.052;2022-11-15T15:33:07;97080.00;;;12.80
19040;BMP180;9652;49.014;12.052;2022-11-15T15:35:35;97072.00;;;12.70
19040;BMP180;9652;49.014;12.052;2022-11-15T15:38:04;97074.00;;;12.70
19040;BMP180;9652;49.014;12.052;2022-11-15T15:40:33;97083.00;;;12.60
19040;BMP180;9652;49.014;12.052;2022-11-15T15:43:00;97081.00;;;12.50
19040;BMP180;9652;49.014;12.052;2022-11-15T15:45:27;97055.00;;;12.40
19040;BMP180;9652;49.014;12.052;2022-11-15T15:47:55;97078.00;;;12.40
19040;BMP180;9652;49.014;12.052;2022-11-15T15:50:27;97079.00;;;12.30
19040;BMP180;9652;49.014;12.052;2022-11-15T15:52:58;97087.00;;;12.20
19040;BMP180;9652;49.014;12.052;2022-11-15T15:55:27;97077.00;;;12.20
19040;BMP180;9652;49.014;12.052;2022-11-15T15:57:55;97085.00;;;11.90
19040;BMP180;9652;49.014;12.052;2022-11-15T16:00:24;97077.00;;;12.10
19040;BMP180;9652;49.014;12.052;2022-11-15T16:02:52;97066.00;;;12.00